createdAt,value
2023-02-14T00:00:25.772Z,68.93
2023-02-14T00:02:52.181Z,69.21
2023-02-14T00:05:18.697Z,69.01
2023-02-14T00:07:45.105Z,68.53
2023-02-14T00:10:11.495Z,68.54
2023-02-14T00:12:37.856Z,68.95
2023-02-14T00:15:22.388Z,67.83
2023-02-14T00:17:50.325Z,68.17
2023-02-14T00:20:16.901Z,68.71
2023-02-14T00:22:43.898Z,69.14
2023-02-14T00:25:10.347Z,69.14
2023-02-14T00:27:36.732Z,68.78
2023-02-14T00:30:03.898Z,69.01
2023-02-14T00:32:31.826Z,69.35
2023-02-14T00:34:58.217Z,68.91
2023-02-14T00:37:24.948Z,69.38
2023-02-14T00:39:52.781Z,69.04
2023-02-14T00:42:19.165Z,68.51
2023-02-14T00:44:45.599Z,68.04
2023-02-14T00:47:11.990Z,69.19
2023-02-14T00:49:38.464Z,69.37
2023-02-14T00:52:04.935Z,68.72
2023-02-14T00:54:31.408Z,69.08
2023-02-14T00:56:59.006Z,69.42
2023-02-14T00:59:25.489Z,69.84
2023-02-14T01:01:51.843Z,69.99
2023-02-14T01:04:18.673Z,69.54
2023-02-14T01:06:45.645Z,70.01
2023-02-14T01:09:12.927Z,69.83
2023-02-14T01:11:40.028Z,69.93
2023-02-14T01:14:06.707Z,70.08
2023-02-14T01:16:33.106Z,70.52
2023-02-14T01:19:02.799Z,70.72
2023-02-14T01:21:32.197Z,70.58
2023-02-14T01:24:01.496Z,70.41
2023-02-14T01:26:28.939Z,70.35
2023-02-14T01:28:55.671Z,70.19
2023-02-14T01:31:26.227Z,70.44
2023-02-14T01:33:54.075Z,69.81
2023-02-14T01:36:24.390Z,70.10
2023-02-14T01:38:53.477Z,69.65
2023-02-14T01:41:20.706Z,69.40
2023-02-14T01:43:58.748Z,68.87
2023-02-14T01:46:26.774Z,68.92
2023-02-14T01:48:58.503Z,68.97
2023-02-14T01:51:24.910Z,69.33
2023-02-14T01:53:53.527Z,69.36
2023-02-14T01:56:34.292Z,68.41
2023-02-14T01:59:02.688Z,68.38
2023-02-14T02:01:29.855Z,69.10
2023-02-14T02:04:00.333Z,68.43
2023-02-14T02:06:35.864Z,69.55
2023-02-14T02:09:17.235Z,69.20
2023-02-14T02:11:43.943Z,68.91
2023-02-14T02:14:14.886Z,69.17
2023-02-14T02:17:03.207Z,70.04
2023-02-14T02:20:05.952Z,69.01
2023-02-14T02:22:51.230Z,69.99
2023-02-14T02:25:33.867Z,69.86
2023-02-14T02:28:46.445Z,69.57
2023-02-14T02:31:41.089Z,69.43
2023-02-14T02:34:29.334Z,69.56
2023-02-14T02:37:11.973Z,69.74
2023-02-14T02:40:00.107Z,69.83
2023-02-14T02:42:39.609Z,70.01
2023-02-14T02:45:09.052Z,69.94
2023-02-14T02:47:49.852Z,70.32
2023-02-14T02:50:50.267Z,69.72
2023-02-14T02:53:33.893Z,70.21
2023-02-14T02:56:44.182Z,69.77
2023-02-14T02:59:18.246Z,70.48
2023-02-14T03:02:06.796Z,70.26
2023-02-14T03:04:54.923Z,70.35
2023-02-14T03:07:43.662Z,70.82
2023-02-14T03:10:22.472Z,70.30
2023-02-14T03:13:18.947Z,70.27
2023-02-14T03:16:26.486Z,70.92
2023-02-14T03:19:20.111Z,70.30
2023-02-14T03:22:03.069Z,70.29
2023-02-14T03:24:45.099Z,70.56
2023-02-14T03:27:18.205Z,70.47
2023-02-14T03:30:02.697Z,70.11
2023-02-14T03:32:44.869Z,70.46
2023-02-14T03:35:30.720Z,70.84
2023-02-14T03:38:25.364Z,70.79
2023-02-14T03:41:04.360Z,70.33
2023-02-14T03:43:39.240Z,70.13
2023-02-14T03:46:15.268Z,70.25
2023-02-14T03:48:42.443Z,70.32
2023-02-14T03:51:12.033Z,70.90
2023-02-14T03:53:43.681Z,70.35
2023-02-14T03:56:32.257Z,70.25
2023-02-14T03:59:06.020Z,71.32
2023-02-14T04:01:38.624Z,71.32
2023-02-14T04:04:07.253Z,70.86
2023-02-14T04:06:33.734Z,71.24
2023-02-14T04:09:00.099Z,70.37
2023-02-14T04:11:26.940Z,71.03
2023-02-14T04:13:53.314Z,70.92
2023-02-14T04:16:19.818Z,71.12
2023-02-14T04:19:04.686Z,71.29
2023-02-14T04:21:31.033Z,70.98
2023-02-14T04:23:57.427Z,71.05
2023-02-14T04:26:23.814Z,70.82
2023-02-14T04:28:50.185Z,71.07
2023-02-14T04:31:17.392Z,71.01
2023-02-14T04:33:45.885Z,70.85
2023-02-14T04:36:15.605Z,70.74
2023-02-14T04:38:41.946Z,71.43
2023-02-14T04:41:08.332Z,70.99
2023-02-14T04:43:34.718Z,71.42
2023-02-14T04:46:01.077Z,70.39
2023-02-14T04:48:27.412Z,71.01
2023-02-14T04:50:55.125Z,70.83
2023-02-14T04:53:22.040Z,70.57
2023-02-14T04:55:49.869Z,71.15
2023-02-14T04:58:16.293Z,71.49
2023-02-14T05:00:42.782Z,70.65
2023-02-14T05:03:09.202Z,70.73
2023-02-14T05:05:35.565Z,70.59
2023-02-14T05:08:02.344Z,70.90
2023-02-14T05:10:29.109Z,70.49
2023-02-14T05:12:55.512Z,70.74
2023-02-14T05:15:21.858Z,71.18
2023-02-14T05:17:48.220Z,71.11
2023-02-14T05:20:14.590Z,70.99
2023-02-14T05:22:40.983Z,71.27
2023-02-14T05:25:08.826Z,71.57
2023-02-14T05:27:35.181Z,71.31
2023-02-14T05:30:02.331Z,71.28
2023-02-14T05:32:28.703Z,70.88
2023-02-14T05:34:55.156Z,71.77
2023-02-14T05:37:21.512Z,71.36
2023-02-14T05:39:47.896Z,71.11
2023-02-14T05:42:14.394Z,70.99
2023-02-14T05:44:40.816Z,70.91
2023-02-14T05:47:07.158Z,71.19
2023-02-14T05:49:35.029Z,71.08
2023-02-14T05:52:02.197Z,70.96
2023-02-14T05:54:28.546Z,71.20
2023-02-14T05:56:54.905Z,71.16
2023-02-14T05:59:21.311Z,71.12
2023-02-14T06:01:47.689Z,71.64
2023-02-14T06:04:14.072Z,71.36
2023-02-14T06:06:40.541Z,71.09
2023-02-14T06:09:07.032Z,71.20
2023-02-14T06:11:34.496Z,70.97
2023-02-14T06:14:00.847Z,71.29
2023-02-14T06:16:27.199Z,71.79
2023-02-14T06:18:53.589Z,71.78
2023-02-14T06:21:20.028Z,71.40
2023-02-14T06:23:46.390Z,71.61
2023-02-14T06:26:12.780Z,71.50
2023-02-14T06:28:39.511Z,71.35
2023-02-14T06:31:06.010Z,71.20
2023-02-14T06:33:32.632Z,71.35
2023-02-14T06:35:59.089Z,71.88
2023-02-14T06:38:29.389Z,71.90
2023-02-14T06:41:02.415Z,71.67
2023-02-14T06:43:28.984Z,71.63
2023-02-14T06:45:55.386Z,71.84
2023-02-14T06:48:21.914Z,72.18
2023-02-14T06:50:48.285Z,71.88
2023-02-14T06:53:14.728Z,71.88
2023-02-14T06:55:42.962Z,72.05
2023-02-14T06:58:10.631Z,72.07
2023-02-14T07:00:37.029Z,71.91
2023-02-14T07:03:03.526Z,71.92
2023-02-14T07:05:29.964Z,71.65
2023-02-14T07:07:56.355Z,71.87
2023-02-14T07:10:23.046Z,71.72
2023-02-14T07:12:49.419Z,71.62
2023-02-14T07:15:16.412Z,72.02
2023-02-14T07:17:42.981Z,71.57
2023-02-14T07:20:10.602Z,71.12
2023-02-14T07:22:38.018Z,70.78
2023-02-14T07:25:06.161Z,70.86
2023-02-14T07:27:33.229Z,70.90
2023-02-14T07:29:59.629Z,71.08
2023-02-14T07:32:26.205Z,71.09
2023-02-14T07:34:52.738Z,71.65
2023-02-14T07:37:19.320Z,71.37
2023-02-14T07:39:45.942Z,71.65
2023-02-14T07:42:12.555Z,71.14
2023-02-14T07:44:39.342Z,71.06
2023-02-14T07:47:07.200Z,71.22
2023-02-14T07:49:33.916Z,71.46
2023-02-14T07:52:00.621Z,71.32
2023-02-14T07:54:27.465Z,71.91
2023-02-14T07:56:53.914Z,71.52
2023-02-14T07:59:20.487Z,71.39
2023-02-14T08:01:46.975Z,71.16
2023-02-14T08:04:13.834Z,71.42
2023-02-14T08:06:41.393Z,71.38
2023-02-14T08:09:09.965Z,70.36
2023-02-14T08:11:56.289Z,71.23
2023-02-14T08:14:23.152Z,71.52
2023-02-14T08:16:49.603Z,70.77
2023-02-14T08:19:15.982Z,71.07
2023-02-14T08:21:42.356Z,70.84
2023-02-14T08:24:08.774Z,70.54
2023-02-14T08:26:35.124Z,71.10
2023-02-14T08:29:02.569Z,69.91
2023-02-14T08:31:35.577Z,70.54
2023-02-14T08:34:03.168Z,70.28
2023-02-14T08:36:29.541Z,70.42
2023-02-14T08:38:57.539Z,70.63
2023-02-14T08:41:24.028Z,71.31
2023-02-14T08:43:50.822Z,70.79
2023-02-14T08:46:17.226Z,71.56
2023-02-14T08:48:44.233Z,70.87
2023-02-14T08:51:13.321Z,71.16
2023-02-14T08:53:40.777Z,71.86
2023-02-14T08:56:12.654Z,70.89
2023-02-14T08:58:39.883Z,70.89
2023-02-14T09:01:15.160Z,70.96
2023-02-14T09:03:41.892Z,69.81
2023-02-14T09:06:11.223Z,70.64
2023-02-14T09:08:38.988Z,70.37
2023-02-14T09:11:16.013Z,69.57
2023-02-14T09:13:42.947Z,68.67
2023-02-14T09:16:11.529Z,70.13
2023-02-14T09:18:38.781Z,69.74
2023-02-14T09:21:11.286Z,69.18
2023-02-14T09:23:38.760Z,68.68
2023-02-14T09:26:07.591Z,69.34
2023-02-14T09:28:34.913Z,68.81
2023-02-14T09:31:11.095Z,68.17
2023-02-14T09:33:37.676Z,68.72
2023-02-14T09:36:22.824Z,68.13
2023-02-14T09:38:49.269Z,69.12
2023-02-14T09:41:31.104Z,68.03
2023-02-14T09:44:29.996Z,69.32
2023-02-14T09:47:01.437Z,68.26
2023-02-14T09:49:32.800Z,67.04
2023-02-14T09:52:01.954Z,68.63
2023-02-14T09:54:29.991Z,68.74
2023-02-14T09:57:03.733Z,68.75
2023-02-14T09:59:43.122Z,68.04
2023-02-14T10:02:33.975Z,68.60
2023-02-14T10:05:12.896Z,68.43
2023-02-14T10:08:02.207Z,68.61
2023-02-14T10:10:33.580Z,68.86
2023-02-14T10:13:07.484Z,68.61
2023-02-14T10:15:41.419Z,67.02
2023-02-14T10:18:17.904Z,66.93
2023-02-14T10:20:52.310Z,65.40
2023-02-14T10:23:37.569Z,67.85
2023-02-14T10:26:07.868Z,66.29
2023-02-14T10:28:46.307Z,66.47
2023-02-14T10:31:19.411Z,66.67
2023-02-14T10:33:52.538Z,66.12
2023-02-14T10:36:37.851Z,59.10
2023-02-14T10:39:22.423Z,55.04
2023-02-14T10:42:33.283Z,52.39
2023-02-14T10:45:23.773Z,49.21
2023-02-14T10:48:05.275Z,48.46
2023-02-14T10:51:16.816Z,47.22
2023-02-14T10:54:21.980Z,46.07
2023-02-14T10:57:03.849Z,41.98
2023-02-14T10:59:33.116Z,40.54
2023-02-14T11:02:00.797Z,39.40
2023-02-14T11:04:31.253Z,39.70
2023-02-14T11:06:57.720Z,39.35
2023-02-14T11:09:24.457Z,39.78
2023-02-14T11:11:56.048Z,38.93
2023-02-14T11:14:35.797Z,38.86
2023-02-14T11:17:30.649Z,38.71
2023-02-14T11:20:02.548Z,38.52
2023-02-14T11:22:34.244Z,37.69
2023-02-14T11:25:18.380Z,38.78
2023-02-14T11:27:50.182Z,37.61
2023-02-14T11:30:24.888Z,37.66
2023-02-14T11:32:56.258Z,37.49
2023-02-14T11:35:27.501Z,36.69
2023-02-14T11:37:57.871Z,34.72
2023-02-14T11:40:38.229Z,34.32
2023-02-14T11:43:14.293Z,34.07
2023-02-14T11:45:46.548Z,33.81
2023-02-14T11:48:37.315Z,32.59
2023-02-14T11:51:09.133Z,30.85
2023-02-14T11:53:45.762Z,32.70
2023-02-14T11:56:13.267Z,31.39
2023-02-14T11:58:59.602Z,31.66
2023-02-14T12:01:29.766Z,31.77
2023-02-14T12:04:01.604Z,31.58
2023-02-14T12:06:31.156Z,30.28
2023-02-14T12:09:22.336Z,29.56
2023-02-14T12:11:59.736Z,29.21
2023-02-14T12:14:31.456Z,29.33
2023-02-14T12:17:18.741Z,29.45
2023-02-14T12:20:03.253Z,29.52
2023-02-14T12:22:35.353Z,28.56
2023-02-14T12:25:16.399Z,29.73
2023-02-14T12:27:50.792Z,29.86
2023-02-14T12:30:25.049Z,28.72
2023-02-14T12:32:53.983Z,29.29
2023-02-14T12:35:47.620Z,29.39
2023-02-14T12:38:41.089Z,29.04
2023-02-14T12:41:26.256Z,29.69
2023-02-14T12:44:07.362Z,29.86
2023-02-14T12:47:16.579Z,30.61
2023-02-14T12:50:02.833Z,31.18
2023-02-14T12:53:08.638Z,30.98
2023-02-14T12:55:58.544Z,32.47
2023-02-14T12:58:56.674Z,32.32
2023-02-14T13:01:46.503Z,32.97
2023-02-14T13:04:40.633Z,34.68
2023-02-14T13:07:28.801Z,36.17
2023-02-14T13:10:19.093Z,36.37
2023-02-14T13:12:52.602Z,38.10
2023-02-14T13:15:29.693Z,38.79
2023-02-14T13:18:10.141Z,38.91
2023-02-14T13:20:59.035Z,39.30
2023-02-14T13:23:27.581Z,41.52
2023-02-14T13:26:03.920Z,42.07
2023-02-14T13:28:31.676Z,41.60
2023-02-14T13:30:59.910Z,40.93
2023-02-14T13:33:36.372Z,41.65
2023-02-14T13:36:08.683Z,42.02
2023-02-14T13:38:48.822Z,41.95
2023-02-14T13:41:17.143Z,42.76
2023-02-14T13:43:48.775Z,42.30
2023-02-14T13:46:22.568Z,43.48
2023-02-14T13:48:58.428Z,43.00
2023-02-14T13:51:48.892Z,42.95
2023-02-14T13:54:40.353Z,44.59
2023-02-14T13:57:33.998Z,44.75
2023-02-14T14:00:18.942Z,44.34
2023-02-14T14:02:52.969Z,44.52
2023-02-14T14:05:39.482Z,44.56
2023-02-14T14:08:20.889Z,44.69
2023-02-14T14:10:50.669Z,44.07
2023-02-14T14:13:42.002Z,44.07
2023-02-14T14:16:24.053Z,42.89
2023-02-14T14:18:52.304Z,43.41
2023-02-14T14:21:34.575Z,43.31
2023-02-14T14:24:16.639Z,42.94
2023-02-14T14:26:46.725Z,43.27
2023-02-14T14:29:18.299Z,43.88
2023-02-14T14:31:46.643Z,44.67
2023-02-14T14:34:20.277Z,44.43
2023-02-14T14:36:47.365Z,45.05
2023-02-14T14:39:26.536Z,46.06
2023-02-14T14:41:52.923Z,46.55
2023-02-14T14:44:19.582Z,46.84
2023-02-14T14:46:46.722Z,46.97
2023-02-14T14:49:15.884Z,47.57
2023-02-14T14:51:42.651Z,47.61
2023-02-14T14:54:11.949Z,48.63
2023-02-14T14:56:52.716Z,49.00
2023-02-14T14:59:28.332Z,48.53
2023-02-14T15:01:54.832Z,49.53
2023-02-14T15:04:35.120Z,50.18
2023-02-14T15:07:28.205Z,50.38
2023-02-14T15:09:54.575Z,50.27
2023-02-14T15:12:41.931Z,51.22
2023-02-14T15:15:12.264Z,51.60
2023-02-14T15:17:40.809Z,52.16
2023-02-14T15:20:11.252Z,52.63
2023-02-14T15:22:42.065Z,52.02
2023-02-14T15:25:18.106Z,52.08
2023-02-14T15:27:44.921Z,52.93
2023-02-14T15:30:20.642Z,53.12
2023-02-14T15:32:49.298Z,54.10
2023-02-14T15:35:18.381Z,54.44
2023-02-14T15:37:46.707Z,54.48
2023-02-14T15:40:22.581Z,54.49
2023-02-14T15:42:55.964Z,55.50
2023-02-14T15:45:36.924Z,55.16
2023-02-14T15:48:20.232Z,55.70
2023-02-14T15:50:55.890Z,55.88
2023-02-14T15:53:44.217Z,55.62
2023-02-14T15:56:31.435Z,56.23
2023-02-14T15:59:07.094Z,56.42
2023-02-14T16:01:35.596Z,56.82
2023-02-14T16:04:05.005Z,56.65
2023-02-14T16:06:38.414Z,56.78
2023-02-14T16:09:07.749Z,57.32
2023-02-14T16:11:36.998Z,57.42
2023-02-14T16:14:46.407Z,57.32
2023-02-14T16:17:14.361Z,57.72
2023-02-14T16:19:43.370Z,57.65
2023-02-14T16:22:23.737Z,57.73
2023-02-14T16:24:50.092Z,58.34
2023-02-14T16:27:17.160Z,58.49
2023-02-14T16:29:43.497Z,58.80
2023-02-14T16:32:20.047Z,59.22
2023-02-14T16:34:47.391Z,59.00
2023-02-14T16:37:24.842Z,59.16
2023-02-14T16:39:54.001Z,59.78
2023-02-14T16:42:23.621Z,59.71
2023-02-14T16:44:50.499Z,60.27
2023-02-14T16:47:19.562Z,60.27
2023-02-14T16:49:46.716Z,60.01
2023-02-14T16:52:16.565Z,60.50
2023-02-14T16:54:43.453Z,60.57
2023-02-14T16:57:23.594Z,60.15
2023-02-14T16:59:50.987Z,60.95
2023-02-14T17:02:18.993Z,60.67
2023-02-14T17:04:45.562Z,60.71
2023-02-14T17:07:14.376Z,61.40
2023-02-14T17:09:45.432Z,61.87
2023-02-14T17:12:16.921Z,61.22
2023-02-14T17:14:48.732Z,62.12
2023-02-14T17:17:15.713Z,61.66
2023-02-14T17:19:42.811Z,61.92
2023-02-14T17:22:10.030Z,61.63
2023-02-14T17:24:36.398Z,61.81
2023-02-14T17:27:02.754Z,62.05
2023-02-14T17:29:29.146Z,62.14
2023-02-14T17:31:55.628Z,62.97
2023-02-14T17:34:22.056Z,62.36
2023-02-14T17:36:48.540Z,62.67
2023-02-14T17:39:19.834Z,63.18
2023-02-14T17:41:46.576Z,63.13
2023-02-14T17:44:13.236Z,62.76
2023-02-14T17:46:39.644Z,62.94
2023-02-14T17:49:06.639Z,63.16
2023-02-14T17:51:36.496Z,63.42
2023-02-14T17:54:02.891Z,63.96
2023-02-14T17:56:29.492Z,63.07
2023-02-14T17:58:56.107Z,63.47
2023-02-14T18:01:26.553Z,63.49
2023-02-14T18:03:55.314Z,64.18
2023-02-14T18:06:22.751Z,63.66
2023-02-14T18:08:53.193Z,63.77
2023-02-14T18:11:20.914Z,64.45
2023-02-14T18:13:47.814Z,64.34
2023-02-14T18:16:17.118Z,64.58
2023-02-14T18:18:43.750Z,64.19
2023-02-14T18:21:12.284Z,64.64
2023-02-14T18:23:39.125Z,64.04
2023-02-14T18:26:08.203Z,64.41
2023-02-14T18:28:35.438Z,65.02
2023-02-14T18:31:04.361Z,65.17
2023-02-14T18:33:30.772Z,64.42
2023-02-14T18:35:57.203Z,65.46
2023-02-14T18:38:23.599Z,65.29
2023-02-14T18:40:50.046Z,65.42
2023-02-14T18:43:16.630Z,65.33
2023-02-14T18:45:42.998Z,65.30
2023-02-14T18:48:09.383Z,65.51
2023-02-14T18:50:36.190Z,65.10
2023-02-14T18:53:02.546Z,66.40
2023-02-14T18:55:28.896Z,65.98
2023-02-14T18:57:55.271Z,65.88
2023-02-14T19:00:22.076Z,66.34
2023-02-14T19:02:48.439Z,67.20
2023-02-14T19:05:14.800Z,67.52
2023-02-14T19:07:41.184Z,68.09
2023-02-14T19:10:08.338Z,67.66
2023-02-14T19:12:34.981Z,68.03
2023-02-14T19:15:01.606Z,67.74
2023-02-14T19:17:28.041Z,68.01
2023-02-14T19:19:55.290Z,68.65
2023-02-14T19:22:22.449Z,68.00
2023-02-14T19:24:49.245Z,67.91
2023-02-14T19:27:16.537Z,68.74
2023-02-14T19:29:42.894Z,68.28
2023-02-14T19:32:09.375Z,67.75
2023-02-14T19:34:36.217Z,68.81
2023-02-14T19:37:03.502Z,69.70
2023-02-14T19:39:30.740Z,69.10
2023-02-14T19:41:58.042Z,69.07
2023-02-14T19:44:25.824Z,69.33
2023-02-14T19:46:56.390Z,68.89
2023-02-14T19:49:22.895Z,70.20
2023-02-14T19:51:51.322Z,69.93
2023-02-14T19:54:18.600Z,70.63
2023-02-14T19:56:47.956Z,70.15
2023-02-14T19:59:22.847Z,69.53
2023-02-14T20:01:53.734Z,70.36
2023-02-14T20:04:25.347Z,70.15
2023-02-14T20:06:52.623Z,71.43
2023-02-14T20:09:21.715Z,70.93
2023-02-14T20:11:51.857Z,71.89
2023-02-14T20:14:23.580Z,72.45
2023-02-14T20:16:50.823Z,72.97
2023-02-14T20:19:19.929Z,73.98
2023-02-14T20:21:49.157Z,72.98
2023-02-14T20:24:20.079Z,72.15
2023-02-14T20:26:47.838Z,71.72
2023-02-14T20:29:15.104Z,71.63
2023-02-14T20:31:45.018Z,72.48
2023-02-14T20:34:12.362Z,71.59
2023-02-14T20:36:39.652Z,72.19
2023-02-14T20:39:07.820Z,71.62
2023-02-14T20:41:35.211Z,70.66
2023-02-14T20:44:07.377Z,71.56
2023-02-14T20:46:34.591Z,70.67
2023-02-14T20:49:01.858Z,70.99
2023-02-14T20:51:29.006Z,71.22
2023-02-14T20:53:55.409Z,71.53
2023-02-14T20:56:25.549Z,71.22
2023-02-14T20:58:51.894Z,72.22
2023-02-14T21:01:21.918Z,71.44
2023-02-14T21:03:50.822Z,71.69
2023-02-14T21:06:18.872Z,71.85
2023-02-14T21:08:45.313Z,71.71
2023-02-14T21:11:14.226Z,71.86
2023-02-14T21:13:40.730Z,71.90
2023-02-14T21:16:15.423Z,71.99
2023-02-14T21:18:47.698Z,71.79
2023-02-14T21:21:21.749Z,71.34
2023-02-14T21:23:49.468Z,71.92
2023-02-14T21:26:17.187Z,71.01
2023-02-14T21:28:43.746Z,71.25
2023-02-14T21:31:12.509Z,71.23
2023-02-14T21:33:39.306Z,70.58
2023-02-14T21:36:25.859Z,70.91
2023-02-14T21:38:54.891Z,71.14
2023-02-14T21:41:23.442Z,70.66
2023-02-14T21:43:55.707Z,70.09
2023-02-14T21:46:29.164Z,71.27
2023-02-14T21:49:14.428Z,70.79
2023-02-14T21:51:41.256Z,70.31
2023-02-14T21:54:08.309Z,69.85
2023-02-14T21:56:36.033Z,70.07
2023-02-14T21:59:02.480Z,70.58
2023-02-14T22:01:33.097Z,70.11
2023-02-14T22:04:00.712Z,70.01
2023-02-14T22:06:28.041Z,69.61
2023-02-14T22:08:59.310Z,69.98
2023-02-14T22:11:28.488Z,69.64
2023-02-14T22:13:56.274Z,69.68
2023-02-14T22:16:24.052Z,70.19
2023-02-14T22:18:50.983Z,69.49
2023-02-14T22:21:20.706Z,69.86
2023-02-14T22:23:47.644Z,69.78
2023-02-14T22:26:17.742Z,69.70
2023-02-14T22:28:46.175Z,69.26
2023-02-14T22:31:14.195Z,69.51
2023-02-14T22:33:40.766Z,69.64
2023-02-14T22:36:08.179Z,70.21
2023-02-14T22:38:35.274Z,69.70
2023-02-14T22:41:16.785Z,70.79
2023-02-14T22:43:44.049Z,71.13
2023-02-14T22:46:19.827Z,71.31
2023-02-14T22:48:47.915Z,71.71
2023-02-14T22:51:37.925Z,71.45
2023-02-14T22:54:08.105Z,71.28
2023-02-14T22:56:40.283Z,72.06
2023-02-14T22:59:12.769Z,72.70
2023-02-14T23:01:39.434Z,73.00
2023-02-14T23:04:06.430Z,73.30
2023-02-14T23:06:35.274Z,74.08
2023-02-14T23:09:04.300Z,74.70
2023-02-14T23:11:32.871Z,74.85
2023-02-14T23:14:18.384Z,74.49
2023-02-14T23:17:03.794Z,73.67
2023-02-14T23:19:51.800Z,73.71
2023-02-14T23:22:22.036Z,74.67
2023-02-14T23:24:50.025Z,74.48
2023-02-14T23:27:23.627Z,75.88
2023-02-14T23:29:50.146Z,76.84
2023-02-14T23:32:17.082Z,76.14
2023-02-14T23:34:44.557Z,75.96
2023-02-14T23:37:13.530Z,75.43
2023-02-14T23:39:39.985Z,75.84
2023-02-14T23:42:11.567Z,76.59
2023-02-14T23:44:38.065Z,77.46
2023-02-14T23:47:06.714Z,79.30
2023-02-14T23:49:35.174Z,80.27
2023-02-14T23:52:02.433Z,79.65
2023-02-14T23:54:28.960Z,79.87
2023-02-14T23:56:55.363Z,79.19
2023-02-14T23:59:22.162Z,78.52
